sensor_id;sensor_type;location;lat;lon;timestamp;pressure;altitude;pressure_sealevel;temperature;humidity
41800;BME280;27468;47.460;19.034;2023-02-12T00:02:06;101620.84;;;5.09;73.48
41800;BME280;27468;47.460;19.034;2023-02-12T00:04:32;101664.91;;;5.32;73.59
41800;BME280;27468;47.460;19.034;2023-02-12T00:06:58;101644.59;;;5.18;73.60
41800;BME280;27468;47.460;19.034;2023-02-12T00:09:23;101620.72;;;5.03;73.65
41800;BME280;27468;47.460;19.034;2023-02-12T00:11:49;101664.06;;;5.34;73.70
41800;BME280;27468;47.460;19.034;2023-02-12T00:14:14;101663.16;;;5.31;73.61
41800;BME280;27468;47.460;19.034;2023-02-12T00:16:40;101656.03;;;5.24;73.84
41800;BME280;27468;47.460;19.034;2023-02-12T00:19:05;101627.19;;;5.20;73.97
41800;BME280;27468;47.460;19.034;2023-02-12T00:21:30;101656.94;;;5.26;74.21
41800;BME280;27468;47.460;19.034;2023-02-12T00:23:56;101656.09;;;5.27;74.42
41800;BME280;27468;47.460;19.034;2023-02-12T00:26:22;101643.72;;;5.19;74.28
41800;BME280;27468;47.460;19.034;2023-02-12T00:28:48;101591.66;;;4.89;74.55
41800;BME280;27468;47.460;19.034;2023-02-12T00:31:15;101662.13;;;5.25;74.50
41800;BME280;27468;47.460;19.034;2023-02-12T00:33:41;101649.66;;;5.12;74.70
41800;BME280;27468;47.460;19.034;2023-02-12T00:36:07;101626.88;;;5.06;74.72
41800;BME280;27468;47.460;19.034;2023-02-12T00:38:34;101656.03;;;5.24;74.74
41800;BME280;27468;47.460;19.034;2023-02-12T00:40:59;101653.34;;;5.20;74.78
41800;BME280;27468;47.460;19.034;2023-02-12T00:43:25;101626.81;;;5.03;74.75
41800;BME280;27468;47.460;19.034;2023-02-12T00:45:51;101655.91;;;5.18;74.66
41800;BME280;27468;47.460;19.034;2023-02-12T00:48:17;101642.84;;;5.18;74.88
41800;BME280;27468;47.460;19.034;2023-02-12T00:50:47;101655.16;;;5.24;74.80
41800;BME280;27468;47.460;19.034;2023-02-12T00:53:13;101639.38;;;5.19;74.77
41800;BME280;27468;47.460;19.034;2023-02-12T00:55:39;101580.28;;;4.87;74.97
41800;BME280;27468;47.460;19.034;2023-02-12T00:58:05;101637.69;;;5.23;75.19
41800;BME280;27468;47.460;19.034;2023-02-12T01:00:30;101612.94;;;5.06;75.04
41800;BME280;27468;47.460;19.034;2023-02-12T01:02:56;101606.00;;;5.08;75.18
41800;BME280;27468;47.460;19.034;2023-02-12T01:05:22;101638.56;;;5.23;75.04
41800;BME280;27468;47.460;19.034;2023-02-12T01:07:52;101642.03;;;5.22;75.18
41800;BME280;27468;47.460;19.034;2023-02-12T01:10:18;101622.66;;;5.11;74.86
41800;BME280;27468;47.460;19.034;2023-02-12T01:12:47;101634.97;;;5.17;74.96
41800;BME280;27468;47.460;19.034;2023-02-12T01:15:14;101654.22;;;5.22;74.82
41800;BME280;27468;47.460;19.034;2023-02-12T01:17:40;101650.00;;;5.28;74.65
41800;BME280;27468;47.460;19.034;2023-02-12T01:20:06;101631.38;;;5.12;75.17
41800;BME280;27468;47.460;19.034;2023-02-12T01:22:36;101653.41;;;5.24;74.97
41800;BME280;27468;47.460;19.034;2023-02-12T01:25:04;101617.34;;;5.08;75.20
41800;BME280;27468;47.460;19.034;2023-02-12T01:27:29;101625.22;;;5.10;75.24
41800;BME280;27468;47.460;19.034;2023-02-12T01:29:55;101640.81;;;5.05;75.38
41800;BME280;27468;47.460;19.034;2023-02-12T01:32:20;101608.53;;;5.03;75.22
41800;BME280;27468;47.460;19.034;2023-02-12T01:34:46;101624.47;;;5.15;75.50
41800;BME280;27468;47.460;19.034;2023-02-12T01:37:11;101610.44;;;5.10;75.45
41800;BME280;27468;47.460;19.034;2023-02-12T01:39:37;101606.72;;;5.01;75.26
41800;BME280;27468;47.460;19.034;2023-02-12T01:42:03;101622.47;;;5.04;75.63
41800;BME280;27468;47.460;19.034;2023-02-12T01:44:30;101616.28;;;5.00;75.58
41800;BME280;27468;47.460;19.034;2023-02-12T01:47:04;101622.47;;;5.04;75.77
41800;BME280;27468;47.460;19.034;2023-02-12T01:52:02;101646.03;;;5.05;76.01
41800;BME280;27468;47.460;19.034;2023-02-12T01:54:30;101644.22;;;5.03;75.97
41800;BME280;27468;47.460;19.034;2023-02-12T01:56:58;101619.28;;;4.79;76.12
41800;BME280;27468;47.460;19.034;2023-02-12T01:59:24;101641.41;;;4.93;76.32
41800;BME280;27468;47.460;19.034;2023-02-12T02:01:50;101658.97;;;4.99;76.47
41800;BME280;27468;47.460;19.034;2023-02-12T02:04:20;101660.72;;;5.00;76.54
41800;BME280;27468;47.460;19.034;2023-02-12T02:07:03;101663.41;;;5.03;76.08
41800;BME280;27468;47.460;19.034;2023-02-12T02:09:30;101623.94;;;4.92;76.14
41800;BME280;27468;47.460;19.034;2023-02-12T02:11:57;101644.25;;;5.04;76.06
41800;BME280;27468;47.460;19.034;2023-02-12T02:14:42;101612.50;;;4.87;75.98
41800;BME280;27468;47.460;19.034;2023-02-12T02:22:33;101629.22;;;4.94;76.04
41800;BME280;27468;47.460;19.034;2023-02-12T02:25:19;101617.66;;;4.84;76.03
41800;BME280;27468;47.460;19.034;2023-02-12T02:28:12;101672.28;;;5.10;76.13
41800;BME280;27468;47.460;19.034;2023-02-12T02:30:54;101618.09;;;4.67;76.13
41800;BME280;27468;47.460;19.034;2023-02-12T02:36:39;101677.81;;;4.86;77.31
41800;BME280;27468;47.460;19.034;2023-02-12T02:39:12;101688.94;;;4.79;77.96
41800;BME280;27468;47.460;19.034;2023-02-12T02:44:57;101689.69;;;4.73;78.41
41800;BME280;27468;47.460;19.034;2023-02-12T02:47:31;101682.59;;;4.69;78.69
41800;BME280;27468;47.460;19.034;2023-02-12T02:50:02;101695.47;;;4.60;79.54
41800;BME280;27468;47.460;19.034;2023-02-12T02:52:42;101640.00;;;4.36;79.17
41800;BME280;27468;47.460;19.034;2023-02-12T02:55:12;101674.41;;;4.54;78.84
41800;BME280;27468;47.460;19.034;2023-02-12T02:58:08;101694.44;;;4.53;79.55
41800;BME280;27468;47.460;19.034;2023-02-12T03:00:43;101693.34;;;4.45;80.03
41800;BME280;27468;47.460;19.034;2023-02-12T03:03:21;101704.88;;;4.53;80.09
41800;BME280;27468;47.460;19.034;2023-02-12T03:05:50;101702.25;;;4.53;80.00
41800;BME280;27468;47.460;19.034;2023-02-12T03:08:23;101650.13;;;4.23;80.04
41800;BME280;27468;47.460;19.034;2023-02-12T03:10:58;101660.50;;;4.22;80.34
41800;BME280;27468;47.460;19.034;2023-02-12T03:13:37;101707.53;;;4.55;79.98
41800;BME280;27468;47.460;19.034;2023-02-12T03:16:12;101725.59;;;4.47;80.34
41800;BME280;27468;47.460;19.034;2023-02-12T03:18:48;101725.28;;;4.35;81.24
41800;BME280;27468;47.460;19.034;2023-02-12T03:21:19;101706.09;;;4.35;80.89
41800;BME280;27468;47.460;19.034;2023-02-12T03:24:43;101729.06;;;4.46;80.69
41800;BME280;27468;47.460;19.034;2023-02-12T03:26:45;101744.44;;;4.36;81.36
41800;BME280;27468;47.460;19.034;2023-02-12T03:29:12;101721.56;;;4.27;81.67
41800;BME280;27468;47.460;19.034;2023-02-12T03:34:46;101738.53;;;4.43;81.00
41800;BME280;27468;47.460;19.034;2023-02-12T03:37:28;101693.28;;;4.11;81.44
41800;BME280;27468;47.460;19.034;2023-02-12T03:40:07;101736.34;;;4.26;81.63
41800;BME280;27468;47.460;19.034;2023-02-12T03:42:46;101753.16;;;4.36;81.52
41800;BME280;27468;47.460;19.034;2023-02-12T03:48:08;101708.75;;;4.05;81.93
41800;BME280;27468;47.460;19.034;2023-02-12T03:50:41;101748.25;;;4.17;82.40
41800;BME280;27468;47.460;19.034;2023-02-12T03:53:09;101762.28;;;4.20;83.05
41800;BME280;27468;47.460;19.034;2023-02-12T03:55:39;101723.66;;;4.09;82.75
41800;BME280;27468;47.460;19.034;2023-02-12T03:58:09;101690.41;;;4.00;82.34
41800;BME280;27468;47.460;19.034;2023-02-12T04:00:37;101736.03;;;4.16;82.59
41800;BME280;27468;47.460;19.034;2023-02-12T04:03:03;101774.50;;;4.21;83.29
41800;BME280;27468;47.460;19.034;2023-02-12T04:05:29;101764.03;;;4.21;83.17
41800;BME280;27468;47.460;19.034;2023-02-12T04:07:56;101736.56;;;4.03;83.29
41800;BME280;27468;47.460;19.034;2023-02-12T04:10:41;101769.19;;;4.18;83.22
41800;BME280;27468;47.460;19.034;2023-02-12T04:18:44;101760.75;;;3.97;83.38
41800;BME280;27468;47.460;19.034;2023-02-12T04:21:20;101748.34;;;3.88;83.28
41800;BME280;27468;47.460;19.034;2023-02-12T04:24:08;101747.53;;;3.91;82.97
41800;BME280;27468;47.460;19.034;2023-02-12T04:26:44;101817.03;;;4.19;82.70
41800;BME280;27468;47.460;19.034;2023-02-12T04:32:17;101755.38;;;3.91;82.37
41800;BME280;27468;47.460;19.034;2023-02-12T04:34:58;101789.31;;;3.92;83.26
41800;BME280;27468;47.460;19.034;2023-02-12T04:37:32;101743.50;;;3.72;83.01
41800;BME280;27468;47.460;19.034;2023-02-12T04:40:03;101785.25;;;4.02;82.61
41800;BME280;27468;47.460;19.034;2023-02-12T04:42:28;101814.00;;;4.04;83.32
41800;BME280;27468;47.460;19.034;2023-02-12T04:44:54;101837.69;;;4.11;83.27
41800;BME280;27468;47.460;19.034;2023-02-12T04:47:19;101772.28;;;3.75;83.34
41800;BME280;27468;47.460;19.034;2023-02-12T04:49:45;101833.13;;;4.03;83.16
41800;BME280;27468;47.460;19.034;2023-02-12T04:52:10;101786.00;;;3.70;83.19
41800;BME280;27468;47.460;19.034;2023-02-12T04:54:36;101803.34;;;3.68;83.67
41800;BME280;27468;47.460;19.034;2023-02-12T04:57:01;101805.84;;;3.64;83.69
41800;BME280;27468;47.460;19.034;2023-02-12T04:59:27;101816.56;;;3.74;83.46
41800;BME280;27468;47.460;19.034;2023-02-12T05:01:52;101861.78;;;4.01;83.41
41800;BME280;27468;47.460;19.034;2023-02-12T05:04:18;101845.84;;;3.92;83.57
41800;BME280;27468;47.460;19.034;2023-02-12T05:06:44;101869.47;;;3.96;84.16
41800;BME280;27468;47.460;19.034;2023-02-12T05:09:15;101872.22;;;4.01;83.94
41800;BME280;27468;47.460;19.034;2023-02-12T05:11:41;101784.47;;;3.48;84.07
41800;BME280;27468;47.460;19.034;2023-02-12T05:14:07;101882.28;;;3.89;84.01
41800;BME280;27468;47.460;19.034;2023-02-12T05:16:32;101900.81;;;3.98;83.91
41800;BME280;27468;47.460;19.034;2023-02-12T05:18:58;101854.91;;;3.76;84.00
41800;BME280;27468;47.460;19.034;2023-02-12T05:21:23;101897.28;;;3.96;84.34
41800;BME280;27468;47.460;19.034;2023-02-12T05:23:48;101874.94;;;3.77;84.76
41800;BME280;27468;47.460;19.034;2023-02-12T05:26:17;101896.78;;;3.81;85.04
41800;BME280;27468;47.460;19.034;2023-02-12T05:28:43;101919.00;;;3.95;84.60
41800;BME280;27468;47.460;19.034;2023-02-12T05:31:10;101903.69;;;3.79;84.69
41800;BME280;27468;47.460;19.034;2023-02-12T05:33:37;101925.69;;;3.87;85.76
41800;BME280;27468;47.460;19.034;2023-02-12T05:36:11;101917.03;;;3.88;85.49
41800;BME280;27468;47.460;19.034;2023-02-12T05:38:37;101896.75;;;3.79;84.92
41800;BME280;27468;47.460;19.034;2023-02-12T05:41:08;101898.31;;;3.74;85.12
41800;BME280;27468;47.460;19.034;2023-02-12T05:43:34;101914.31;;;3.85;85.28
41800;BME280;27468;47.460;19.034;2023-02-12T05:46:01;101930.81;;;3.84;85.27
41800;BME280;27468;47.460;19.034;2023-02-12T05:48:28;101924.84;;;3.88;84.74
41800;BME280;27468;47.460;19.034;2023-02-12T05:50:53;101915.78;;;3.77;84.83
41800;BME280;27468;47.460;19.034;2023-02-12T05:53:19;101935.88;;;3.79;84.79
41800;BME280;27468;47.460;19.034;2023-02-12T05:55:45;101929.38;;;3.67;84.92
41800;BME280;27468;47.460;19.034;2023-02-12T05:58:11;101908.72;;;3.47;85.98
41800;BME280;27468;47.460;19.034;2023-02-12T06:00:36;101925.56;;;3.57;85.44
41800;BME280;27468;47.460;19.034;2023-02-12T06:03:02;101953.88;;;3.72;85.38
41800;BME280;27468;47.460;19.034;2023-02-12T06:05:27;101905.69;;;3.34;86.04
41800;BME280;27468;47.460;19.034;2023-02-12T06:07:53;101949.72;;;3.51;86.75
41800;BME280;27468;47.460;19.034;2023-02-12T06:10:18;101961.81;;;3.49;87.01
41800;BME280;27468;47.460;19.034;2023-02-12T06:12:44;101909.63;;;3.22;86.53
41800;BME280;27468;47.460;19.034;2023-02-12T06:15:09;101982.25;;;3.62;86.69
41800;BME280;27468;47.460;19.034;2023-02-12T06:17:35;101955.63;;;3.46;86.85
41800;BME280;27468;47.460;19.034;2023-02-12T06:20:00;101966.28;;;3.53;86.60
41800;BME280;27468;47.460;19.034;2023-02-12T06:22:27;101973.38;;;3.57;87.05
41800;BME280;27468;47.460;19.034;2023-02-12T06:24:52;101969.00;;;3.56;86.70
41800;BME280;27468;47.460;19.034;2023-02-12T06:27:18;101941.59;;;3.42;86.84
41800;BME280;27468;47.460;19.034;2023-02-12T06:29:43;101919.38;;;3.28;87.10
41800;BME280;27468;47.460;19.034;2023-02-12T06:32:09;101956.53;;;3.48;86.98
41800;BME280;27468;47.460;19.034;2023-02-12T06:34:38;101987.56;;;3.65;86.89
41800;BME280;27468;47.460;19.034;2023-02-12T06:37:03;101947.16;;;3.53;86.56
41800;BME280;27468;47.460;19.034;2023-02-12T06:39:28;101979.28;;;3.77;86.49
41800;BME280;27468;47.460;19.034;2023-02-12T06:41:54;101920.84;;;3.45;86.37
41800;BME280;27468;47.460;19.034;2023-02-12T06:44:19;101993.31;;;3.81;86.65
41800;BME280;27468;47.460;19.034;2023-02-12T06:46:45;101953.94;;;3.48;86.54
41800;BME280;27468;47.460;19.034;2023-02-12T06:49:11;102011.47;;;3.78;86.38
41800;BME280;27468;47.460;19.034;2023-02-12T06:51:37;102003.34;;;3.69;86.07
41800;BME280;27468;47.460;19.034;2023-02-12T06:54:04;102026.44;;;3.83;86.11
41800;BME280;27468;47.460;19.034;2023-02-12T06:56:29;102020.09;;;3.75;86.43
41800;BME280;27468;47.460;19.034;2023-02-12T06:58:57;102027.53;;;3.90;86.46
41800;BME280;27468;47.460;19.034;2023-02-12T07:01:26;102029.47;;;3.95;86.04
41800;BME280;27468;47.460;19.034;2023-02-12T07:03:54;102023.16;;;3.89;86.59
41800;BME280;27468;47.460;19.034;2023-02-12T07:06:21;101980.91;;;3.74;86.44
41800;BME280;27468;47.460;19.034;2023-02-12T07:08:47;102011.88;;;3.90;86.34
41800;BME280;27468;47.460;19.034;2023-02-12T07:11:13;102021.69;;;3.97;86.33
41800;BME280;27468;47.460;19.034;2023-02-12T07:13:42;102050.25;;;4.19;86.31
41800;BME280;27468;47.460;19.034;2023-02-12T07:16:10;101993.00;;;3.97;85.99
41800;BME280;27468;47.460;19.034;2023-02-12T07:18:37;101989.44;;;3.95;85.88
41800;BME280;27468;47.460;19.034;2023-02-12T07:21:04;102068.50;;;4.45;85.25
41800;BME280;27468;47.460;19.034;2023-02-12T07:23:31;102075.69;;;4.52;85.19
41800;BME280;27468;47.460;19.034;2023-02-12T07:25:58;102071.50;;;4.57;84.83
41800;BME280;27468;47.460;19.034;2023-02-12T07:28:24;102069.97;;;4.65;84.51
41800;BME280;27468;47.460;19.034;2023-02-12T07:30:49;102024.88;;;4.42;83.99
41800;BME280;27468;47.460;19.034;2023-02-12T07:33:15;102071.84;;;4.69;83.65
41800;BME280;27468;47.460;19.034;2023-02-12T07:35:41;102068.31;;;4.67;83.58
41800;BME280;27468;47.460;19.034;2023-02-12T07:38:06;102031.38;;;4.55;83.21
41800;BME280;27468;47.460;19.034;2023-02-12T07:40:31;102069.53;;;4.78;82.94
41800;BME280;27468;47.460;19.034;2023-02-12T07:42:57;102068.84;;;4.84;82.80
41800;BME280;27468;47.460;19.034;2023-02-12T07:45:22;102070.69;;;4.88;82.31
41800;BME280;27468;47.460;19.034;2023-02-12T07:47:49;102099.91;;;5.03;82.25
41800;BME280;27468;47.460;19.034;2023-02-12T07:50:15;102069.00;;;4.90;81.63
41800;BME280;27468;47.460;19.034;2023-02-12T07:52:40;102085.16;;;5.05;81.24
41800;BME280;27468;47.460;19.034;2023-02-12T07:55:06;102072.88;;;5.03;80.87
41800;BME280;27468;47.460;19.034;2023-02-12T07:57:33;102108.28;;;5.20;80.51
41800;BME280;27468;47.460;19.034;2023-02-12T07:59:59;102107.34;;;5.18;80.60
41800;BME280;27468;47.460;19.034;2023-02-12T08:02:24;102073.81;;;5.05;80.16
41800;BME280;27468;47.460;19.034;2023-02-12T08:04:57;102095.06;;;5.15;79.94
41800;BME280;27468;47.460;19.034;2023-02-12T08:07:23;102081.06;;;5.13;79.94
41800;BME280;27468;47.460;19.034;2023-02-12T08:09:49;102105.75;;;5.24;80.01
41800;BME280;27468;47.460;19.034;2023-02-12T08:12:15;102102.38;;;5.28;79.76
41800;BME280;27468;47.460;19.034;2023-02-12T08:14:41;102087.41;;;5.23;79.66
41800;BME280;27468;47.460;19.034;2023-02-12T08:17:06;102056.50;;;5.08;79.57
41800;BME280;27468;47.460;19.034;2023-02-12T08:19:32;102116.09;;;5.50;79.44
41800;BME280;27468;47.460;19.034;2023-02-12T08:21:58;102119.66;;;5.52;79.07
41800;BME280;27468;47.460;19.034;2023-02-12T08:24:24;102119.78;;;5.56;79.06
41800;BME280;27468;47.460;19.034;2023-02-12T08:26:50;102133.84;;;5.60;78.54
41800;BME280;27468;47.460;19.034;2023-02-12T08:29:19;102135.75;;;5.66;78.14
41800;BME280;27468;47.460;19.034;2023-02-12T08:31:46;102116.41;;;5.60;77.97
41800;BME280;27468;47.460;19.034;2023-02-12T08:34:23;102072.97;;;5.36;77.80
41800;BME280;27468;47.460;19.034;2023-02-12T08:36:51;102084.63;;;5.47;77.76
41800;BME280;27468;47.460;19.034;2023-02-12T08:39:18;102142.16;;;5.78;77.46
41800;BME280;27468;47.460;19.034;2023-02-12T08:41:44;102137.88;;;5.80;77.33
41800;BME280;27468;47.460;19.034;2023-02-12T08:44:10;102133.56;;;5.82;77.02
41800;BME280;27468;47.460;19.034;2023-02-12T08:46:38;102075.97;;;5.49;76.93
41800;BME280;27468;47.460;19.034;2023-02-12T08:49:11;102129.34;;;5.87;76.85
41800;BME280;27468;47.460;19.034;2023-02-12T08:51:38;102140.97;;;5.97;76.78
41800;BME280;27468;47.460;19.034;2023-02-12T08:54:06;102119.84;;;5.89;76.43
41800;BME280;27468;47.460;19.034;2023-02-12T08:56:34;102128.75;;;5.96;76.51
41800;BME280;27468;47.460;19.034;2023-02-12T08:59:01;102160.66;;;6.14;76.28
41800;BME280;27468;47.460;19.034;2023-02-12T09:01:29;102120.00;;;5.95;75.80
41800;BME280;27468;47.460;19.034;2023-02-12T09:03:55;102160.84;;;6.22;75.46
41800;BME280;27468;47.460;19.034;2023-02-12T09:06:22;102109.72;;;6.03;75.39
41800;BME280;27468;47.460;19.034;2023-02-12T09:08:49;102165.50;;;6.32;74.95
41800;BME280;27468;47.460;19.034;2023-02-12T09:11:22;102170.97;;;6.43;74.80
41800;BME280;27468;47.460;19.034;2023-02-12T09:13:50;102121.22;;;6.08;74.34
41800;BME280;27468;47.460;19.034;2023-02-12T09:16:17;102170.91;;;6.40;74.21
41800;BME280;27468;47.460;19.034;2023-02-12T09:18:43;102179.00;;;6.49;74.04
41800;BME280;27468;47.460;19.034;2023-02-12T09:21:13;102182.66;;;6.55;73.44
41800;BME280;27468;47.460;19.034;2023-02-12T09:23:41;102183.66;;;6.60;73.21
41800;BME280;27468;47.460;19.034;2023-02-12T09:26:10;102193.38;;;6.65;72.80
41800;BME280;27468;47.460;19.034;2023-02-12T09:28:36;102180.13;;;6.58;72.54
41800;BME280;27468;47.460;19.034;2023-02-12T09:31:06;102168.78;;;6.59;72.31
41800;BME280;27468;47.460;19.034;2023-02-12T09:33:32;102157.44;;;6.59;72.51
41800;BME280;27468;47.460;19.034;2023-02-12T09:36:07;102171.75;;;6.73;71.90
41800;BME280;27468;47.460;19.034;2023-02-12T09:38:33;102131.16;;;6.56;71.67
41800;BME280;27468;47.460;19.034;2023-02-12T09:47:12;102192.75;;;7.11;71.33
41800;BME280;27468;47.460;19.034;2023-02-12T09:52:33;102175.31;;;7.13;70.29
41800;BME280;27468;47.460;19.034;2023-02-12T09:54:59;102167.47;;;7.14;69.96
41800;BME280;27468;47.460;19.034;2023-02-12T09:57:35;102194.31;;;7.40;69.79
41800;BME280;27468;47.460;19.034;2023-02-12T10:00:30;102154.56;;;7.23;68.86
41800;BME280;27468;47.460;19.034;2023-02-12T10:03:02;102123.03;;;7.20;68.39
41800;BME280;27468;47.460;19.034;2023-02-12T10:05:35;102179.56;;;7.47;68.36
41800;BME280;27468;47.460;19.034;2023-02-12T10:10:50;102198.44;;;7.71;67.45
41800;BME280;27468;47.460;19.034;2023-02-12T10:13:24;102206.34;;;7.73;66.82
41800;BME280;27468;47.460;19.034;2023-02-12T10:16:40;102199.56;;;7.82;66.30
41800;BME280;27468;47.460;19.034;2023-02-12T10:27:31;102162.81;;;7.84;63.12
41800;BME280;27468;47.460;19.034;2023-02-12T10:29:59;102179.75;;;7.98;63.01
41800;BME280;27468;47.460;19.034;2023-02-12T10:32:29;102217.00;;;8.24;61.83
41800;BME280;27468;47.460;19.034;2023-02-12T10:34:56;102185.28;;;8.13;61.49
41800;BME280;27468;47.460;19.034;2023-02-12T10:39:54;102191.69;;;8.29;60.45
41800;BME280;27468;47.460;19.034;2023-02-12T10:42:40;102221.09;;;8.53;59.93
41800;BME280;27468;47.460;19.034;2023-02-12T10:45:15;102172.56;;;8.35;59.08
41800;BME280;27468;47.460;19.034;2023-02-12T10:47:41;102195.63;;;8.51;57.58
41800;BME280;27468;47.460;19.034;2023-02-12T10:50:36;102217.91;;;8.73;57.84
41800;BME280;27468;47.460;19.034;2023-02-12T10:53:04;102170.38;;;8.59;56.97
41800;BME280;27468;47.460;19.034;2023-02-12T10:55:34;102154.63;;;8.60;56.00
41800;BME280;27468;47.460;19.034;2023-02-12T10:58:03;102198.09;;;8.93;54.96
41800;BME280;27468;47.460;19.034;2023-02-12T11:00:30;102209.72;;;9.07;54.51
41800;BME280;27468;47.460;19.034;2023-02-12T11:05:38;102163.03;;;8.94;54.46
41800;BME280;27468;47.460;19.034;2023-02-12T11:08:04;102197.69;;;9.26;54.49
41800;BME280;27468;47.460;19.034;2023-02-12T11:10:38;102167.72;;;9.15;54.27
41800;BME280;27468;47.460;19.034;2023-02-12T11:13:05;102198.72;;;9.37;53.82
41800;BME280;27468;47.460;19.034;2023-02-12T11:15:46;102202.38;;;9.47;52.94
41800;BME280;27468;47.460;19.034;2023-02-12T11:18:26;102160.88;;;9.29;53.22
41800;BME280;27468;47.460;19.034;2023-02-12T11:20:55;102204.34;;;9.62;52.48
41800;BME280;27468;47.460;19.034;2023-02-12T11:23:29;102213.25;;;9.71;52.96
41800;BME280;27468;47.460;19.034;2023-02-12T11:26:01;102206.31;;;9.78;52.24
41800;BME280;27468;47.460;19.034;2023-02-12T11:28:27;102198.34;;;9.72;51.90
41800;BME280;27468;47.460;19.034;2023-02-12T11:31:01;102151.50;;;9.48;52.31
41800;BME280;27468;47.460;19.034;2023-02-12T11:33:36;102213.50;;;9.92;52.79
41800;BME280;27468;47.460;19.034;2023-02-12T11:36:21;102206.38;;;9.85;51.77
41800;BME280;27468;47.460;19.034;2023-02-12T11:38:51;102191.41;;;9.83;51.04
41800;BME280;27468;47.460;19.034;2023-02-12T11:41:28;102199.59;;;10.04;51.62
41800;BME280;27468;47.460;19.034;2023-02-12T11:43:59;102144.88;;;9.79;51.26
41800;BME280;27468;47.460;19.034;2023-02-12T11:46:26;102209.56;;;10.30;50.91
41800;BME280;27468;47.460;19.034;2023-02-12T11:48:53;102138.88;;;9.97;50.98
41800;BME280;27468;47.460;19.034;2023-02-12T11:51:24;102170.88;;;10.27;49.96
41800;BME280;27468;47.460;19.034;2023-02-12T11:53:52;102163.00;;;10.30;50.21
41800;BME280;27468;47.460;19.034;2023-02-12T11:56:19;102208.19;;;10.70;50.32
41800;BME280;27468;47.460;19.034;2023-02-12T11:58:46;102209.97;;;10.74;50.54
41800;BME280;27468;47.460;19.034;2023-02-12T12:01:24;102222.28;;;10.73;50.84
41800;BME280;27468;47.460;19.034;2023-02-12T12:07:06;102202.94;;;10.74;51.69
41800;BME280;27468;47.460;19.034;2023-02-12T12:09:33;102204.75;;;10.78;51.57
41800;BME280;27468;47.460;19.034;2023-02-12T12:12:20;102194.97;;;10.68;51.53
41800;BME280;27468;47.460;19.034;2023-02-12T12:15:27;102188.72;;;10.58;51.19
41800;BME280;27468;47.460;19.034;2023-02-12T12:18:33;102170.13;;;10.39;51.02
41800;BME280;27468;47.460;19.034;2023-02-12T12:26:46;102130.31;;;10.17;50.88
41800;BME280;27468;47.460;19.034;2023-02-12T12:29:27;102167.47;;;10.42;50.81
41800;BME280;27468;47.460;19.034;2023-02-12T12:31:58;102180.78;;;10.55;51.09
41800;BME280;27468;47.460;19.034;2023-02-12T12:34:26;102157.81;;;10.42;51.28
41800;BME280;27468;47.460;19.034;2023-02-12T12:51:10;102140.16;;;10.31;50.85
41800;BME280;27468;47.460;19.034;2023-02-12T12:57:05;102170.31;;;10.65;51.09
41800;BME280;27468;47.460;19.034;2023-02-12T12:59:51;102153.63;;;10.66;51.08
41800;BME280;27468;47.460;19.034;2023-02-12T13:10:56;102175.69;;;10.75;50.87
41800;BME280;27468;47.460;19.034;2023-02-12T13:13:39;102175.66;;;10.71;51.30
41800;BME280;27468;47.460;19.034;2023-02-12T13:18:57;102188.09;;;10.84;51.47
41800;BME280;27468;47.460;19.034;2023-02-12T13:21:39;102164.09;;;10.55;51.66
41800;BME280;27468;47.460;19.034;2023-02-12T13:24:11;102192.44;;;10.79;51.56
41800;BME280;27468;47.460;19.034;2023-02-12T13:26:50;102185.34;;;10.73;51.38
41800;BME280;27468;47.460;19.034;2023-02-12T13:29:31;102138.63;;;10.57;51.44
41800;BME280;27468;47.460;19.034;2023-02-12T13:32:05;102198.56;;;10.76;51.54
41800;BME280;27468;47.460;19.034;2023-02-12T13:34:34;102141.09;;;10.40;51.69
41800;BME280;27468;47.460;19.034;2023-02-12T13:37:02;102179.97;;;10.61;51.83
41800;BME280;27468;47.460;19.034;2023-02-12T13:39:40;102154.34;;;10.48;51.73
41800;BME280;27468;47.460;19.034;2023-02-12T13:42:11;102179.94;;;10.59;51.69
41800;BME280;27468;47.460;19.034;2023-02-12T13:56:42;102217.88;;;10.71;51.06
41800;BME280;27468;47.460;19.034;2023-02-12T14:02:01;102205.56;;;10.71;50.95
41800;BME280;27468;47.460;19.034;2023-02-12T14:05:13;102197.50;;;10.56;51.07
41800;BME280;27468;47.460;19.034;2023-02-12T14:07:20;102198.47;;;10.64;50.82
41800;BME280;27468;47.460;19.034;2023-02-12T14:10:00;102192.13;;;10.47;51.10
41800;BME280;27468;47.460;19.034;2023-02-12T14:12:30;102177.94;;;10.30;51.10
41800;BME280;27468;47.460;19.034;2023-02-12T14:15:06;102220.25;;;10.46;51.22
41800;BME280;27468;47.460;19.034;2023-02-12T14:27:53;102209.38;;;10.14;52.00
41800;BME280;27468;47.460;19.034;2023-02-12T14:35:30;102237.44;;;10.11;52.27
41800;BME280;27468;47.460;19.034;2023-02-12T14:43:00;102198.34;;;9.73;52.68
41800;BME280;27468;47.460;19.034;2023-02-12T14:45:46;102077.16;;;8.99;52.65
41800;BME280;27468;47.460;19.034;2023-02-12T14:51:03;102221.28;;;9.80;52.57
41800;BME280;27468;47.460;19.034;2023-02-12T14:53:34;102231.84;;;9.82;52.44
41800;BME280;27468;47.460;19.034;2023-02-12T14:56:03;102250.28;;;9.85;52.81
41800;BME280;27468;47.460;19.034;2023-02-12T14:58:31;102228.19;;;9.72;52.96
41800;BME280;27468;47.460;19.034;2023-02-12T15:00:58;102244.06;;;9.78;53.00
41800;BME280;27468;47.460;19.034;2023-02-12T15:03:40;102241.44;;;9.78;52.74
41800;BME280;27468;47.460;19.034;2023-02-12T15:06:20;102248.44;;;9.76;52.82
41800;BME280;27468;47.460;19.034;2023-02-12T15:09:06;102245.84;;;9.79;52.56
41800;BME280;27468;47.460;19.034;2023-02-12T15:11:42;102203.31;;;9.50;52.76
41800;BME280;27468;47.460;19.034;2023-02-12T15:14:22;102242.19;;;9.70;52.66